sensor_id;sensor_type;location;lat;lon;timestamp;temperature;humidity
27540;DHT22;15906;52.046;4.724;2023-04-19T00:00:27;8.60;99.90
27540;DHT22;15906;52.046;4.724;2023-04-19T00:02:52;8.70;99.90
27540;DHT22;15906;52.046;4.724;2023-04-19T00:05:18;8.60;99.90
27540;DHT22;15906;52.046;4.724;2023-04-19T00:07:46;8.60;99.90
27540;DHT22;15906;52.046;4.724;2023-04-19T00:10:12;8.70;99.90
27540;DHT22;15906;52.046;4.724;2023-04-19T00:12:38;8.50;99.90
27540;DHT22;15906;52.046;4.724;2023-04-19T00:15:04;8.60;99.90
27540;DHT22;15906;52.046;4.724;2023-04-19T00:17:30;8.60;99.90
27540;DHT22;15906;52.046;4.724;2023-04-19T00:19:56;8.60;99.90
27540;DHT22;15906;52.046;4.724;2023-04-19T00:22:22;8.40;99.90
27540;DHT22;15906;52.046;4.724;2023-04-19T00:24:47;8.40;99.90
27540;DHT22;15906;52.046;4.724;2023-04-19T00:27:13;8.40;99.90
27540;DHT22;15906;52.046;4.724;2023-04-19T00:29:38;8.40;99.90
27540;DHT22;15906;52.046;4.724;2023-04-19T00:32:04;8.40;99.90
27540;DHT22;15906;52.046;4.724;2023-04-19T00:34:30;8.50;99.90
27540;DHT22;15906;52.046;4.724;2023-04-19T00:36:57;8.50;99.90
27540;DHT22;15906;52.046;4.724;2023-04-19T00:39:23;8.60;99.90
27540;DHT22;15906;52.046;4.724;2023-04-19T00:41:48;8.70;99.90
27540;DHT22;15906;52.046;4.724;2023-04-19T00:44:14;8.70;99.90
27540;DHT22;15906;52.046;4.724;2023-04-19T00:46:39;8.80;99.90
27540;DHT22;15906;52.046;4.724;2023-04-19T00:49:05;8.90;99.90
27540;DHT22;15906;52.046;4.724;2023-04-19T00:51:32;9.00;99.90
27540;DHT22;15906;52.046;4.724;2023-04-19T00:53:57;9.00;99.90
27540;DHT22;15906;52.046;4.724;2023-04-19T00:56:25;9.10;99.90
27540;DHT22;15906;52.046;4.724;2023-04-19T00:58:53;9.20;99.90
27540;DHT22;15906;52.046;4.724;2023-04-19T01:01:18;9.20;99.90
27540;DHT22;15906;52.046;4.724;2023-04-19T01:03:45;9.30;99.90
27540;DHT22;15906;52.046;4.724;2023-04-19T01:06:11;9.30;99.90
27540;DHT22;15906;52.046;4.724;2023-04-19T01:08:36;9.20;99.90
27540;DHT22;15906;52.046;4.724;2023-04-19T01:11:02;9.30;99.90
27540;DHT22;15906;52.046;4.724;2023-04-19T01:13:27;9.30;99.90
27540;DHT22;15906;52.046;4.724;2023-04-19T01:15:54;9.30;99.90
27540;DHT22;15906;52.046;4.724;2023-04-19T01:18:20;9.10;99.90
27540;DHT22;15906;52.046;4.724;2023-04-19T01:20:47;9.10;99.90
27540;DHT22;15906;52.046;4.724;2023-04-19T01:23:12;9.10;99.90
27540;DHT22;15906;52.046;4.724;2023-04-19T01:25:38;9.00;99.90
27540;DHT22;15906;52.046;4.724;2023-04-19T01:28:03;8.90;99.90
27540;DHT22;15906;52.046;4.724;2023-04-19T01:30:30;8.80;99.90
27540;DHT22;15906;52.046;4.724;2023-04-19T01:32:55;8.70;99.90
27540;DHT22;15906;52.046;4.724;2023-04-19T01:35:21;8.70;99.90
27540;DHT22;15906;52.046;4.724;2023-04-19T01:37:46;8.80;99.90
27540;DHT22;15906;52.046;4.724;2023-04-19T01:40:12;8.60;99.90
27540;DHT22;15906;52.046;4.724;2023-04-19T01:42:38;8.60;99.90
27540;DHT22;15906;52.046;4.724;2023-04-19T01:45:04;8.60;99.90
27540;DHT22;15906;52.046;4.724;2023-04-19T01:47:29;8.40;99.90
27540;DHT22;15906;52.046;4.724;2023-04-19T01:49:55;8.40;99.90
27540;DHT22;15906;52.046;4.724;2023-04-19T01:52:20;8.40;99.90
27540;DHT22;15906;52.046;4.724;2023-04-19T01:54:46;8.30;99.90
27540;DHT22;15906;52.046;4.724;2023-04-19T01:57:11;8.30;99.90
27540;DHT22;15906;52.046;4.724;2023-04-19T01:59:37;8.30;99.90
27540;DHT22;15906;52.046;4.724;2023-04-19T02:02:06;8.20;99.90
27540;DHT22;15906;52.046;4.724;2023-04-19T02:04:33;8.20;99.90
27540;DHT22;15906;52.046;4.724;2023-04-19T02:06:58;8.20;99.90
27540;DHT22;15906;52.046;4.724;2023-04-19T02:09:24;8.20;99.90
27540;DHT22;15906;52.046;4.724;2023-04-19T02:11:49;8.10;99.90
27540;DHT22;15906;52.046;4.724;2023-04-19T02:14:15;8.10;99.90
27540;DHT22;15906;52.046;4.724;2023-04-19T02:16:40;8.10;99.90
27540;DHT22;15906;52.046;4.724;2023-04-19T02:19:06;8.10;99.90
27540;DHT22;15906;52.046;4.724;2023-04-19T02:21:31;8.10;99.90
27540;DHT22;15906;52.046;4.724;2023-04-19T02:23:57;8.20;99.90
27540;DHT22;15906;52.046;4.724;2023-04-19T02:26:22;8.10;99.90
27540;DHT22;15906;52.046;4.724;2023-04-19T02:28:50;8.10;99.90
27540;DHT22;15906;52.046;4.724;2023-04-19T02:31:17;8.20;99.90
27540;DHT22;15906;52.046;4.724;2023-04-19T02:33:43;8.20;99.90
27540;DHT22;15906;52.046;4.724;2023-04-19T02:36:08;8.20;99.90
27540;DHT22;15906;52.046;4.724;2023-04-19T02:38:34;8.30;99.90
27540;DHT22;15906;52.046;4.724;2023-04-19T02:40:59;8.30;99.90
27540;DHT22;15906;52.046;4.724;2023-04-19T02:43:28;8.30;99.90
27540;DHT22;15906;52.046;4.724;2023-04-19T02:45:55;8.30;99.90
27540;DHT22;15906;52.046;4.724;2023-04-19T02:48:20;8.30;99.90
27540;DHT22;15906;52.046;4.724;2023-04-19T02:50:46;8.40;99.90
27540;DHT22;15906;52.046;4.724;2023-04-19T02:53:11;8.30;99.90
27540;DHT22;15906;52.046;4.724;2023-04-19T02:55:37;8.50;99.90
27540;DHT22;15906;52.046;4.724;2023-04-19T02:58:03;8.50;99.90
27540;DHT22;15906;52.046;4.724;2023-04-19T03:00:28;8.50;99.90
27540;DHT22;15906;52.046;4.724;2023-04-19T03:02:55;8.40;99.90
27540;DHT22;15906;52.046;4.724;2023-04-19T03:05:21;8.40;99.90
27540;DHT22;15906;52.046;4.724;2023-04-19T03:07:47;8.50;99.90
27540;DHT22;15906;52.046;4.724;2023-04-19T03:10:12;8.50;99.90
27540;DHT22;15906;52.046;4.724;2023-04-19T03:12:38;8.50;99.90
27540;DHT22;15906;52.046;4.724;2023-04-19T03:15:04;8.50;99.90
27540;DHT22;15906;52.046;4.724;2023-04-19T03:17:30;8.50;99.90
27540;DHT22;15906;52.046;4.724;2023-04-19T03:19:56;8.50;99.90
27540;DHT22;15906;52.046;4.724;2023-04-19T03:22:22;8.60;99.90
27540;DHT22;15906;52.046;4.724;2023-04-19T03:24:47;8.60;99.90
27540;DHT22;15906;52.046;4.724;2023-04-19T03:27:13;8.70;99.90
27540;DHT22;15906;52.046;4.724;2023-04-19T03:29:38;8.70;99.90
27540;DHT22;15906;52.046;4.724;2023-04-19T03:32:04;8.70;99.90
27540;DHT22;15906;52.046;4.724;2023-04-19T03:34:29;8.70;99.90
27540;DHT22;15906;52.046;4.724;2023-04-19T03:36:55;8.70;99.90
27540;DHT22;15906;52.046;4.724;2023-04-19T03:39:20;8.70;99.90
27540;DHT22;15906;52.046;4.724;2023-04-19T03:41:46;8.70;99.90
27540;DHT22;15906;52.046;4.724;2023-04-19T03:44:11;8.70;99.90
27540;DHT22;15906;52.046;4.724;2023-04-19T03:46:37;8.70;99.90
27540;DHT22;15906;52.046;4.724;2023-04-19T03:49:02;8.80;99.90
27540;DHT22;15906;52.046;4.724;2023-04-19T03:51:28;8.90;99.90
27540;DHT22;15906;52.046;4.724;2023-04-19T03:53:53;8.90;99.90
27540;DHT22;15906;52.046;4.724;2023-04-19T03:56:19;8.90;99.90
27540;DHT22;15906;52.046;4.724;2023-04-19T03:58:45;9.00;99.90
27540;DHT22;15906;52.046;4.724;2023-04-19T04:01:21;8.90;99.90
27540;DHT22;15906;52.046;4.724;2023-04-19T04:03:46;9.00;99.90
27540;DHT22;15906;52.046;4.724;2023-04-19T04:06:12;9.00;99.90
27540;DHT22;15906;52.046;4.724;2023-04-19T04:08:37;9.00;99.90
27540;DHT22;15906;52.046;4.724;2023-04-19T04:11:03;9.00;99.90
27540;DHT22;15906;52.046;4.724;2023-04-19T04:13:29;9.00;99.90
27540;DHT22;15906;52.046;4.724;2023-04-19T04:15:54;9.00;99.90
27540;DHT22;15906;52.046;4.724;2023-04-19T04:18:20;9.00;99.90
27540;DHT22;15906;52.046;4.724;2023-04-19T04:20:46;9.00;99.90
27540;DHT22;15906;52.046;4.724;2023-04-19T04:23:11;9.00;99.90
27540;DHT22;15906;52.046;4.724;2023-04-19T04:25:38;9.10;99.90
27540;DHT22;15906;52.046;4.724;2023-04-19T04:28:04;9.00;99.90
27540;DHT22;15906;52.046;4.724;2023-04-19T04:30:31;9.00;99.90
27540;DHT22;15906;52.046;4.724;2023-04-19T04:32:56;9.00;99.90
27540;DHT22;15906;52.046;4.724;2023-04-19T04:35:25;9.00;99.90
27540;DHT22;15906;52.046;4.724;2023-04-19T04:37:51;9.00;99.90
27540;DHT22;15906;52.046;4.724;2023-04-19T04:40:21;9.10;99.90
27540;DHT22;15906;52.046;4.724;2023-04-19T04:42:46;9.10;99.90
27540;DHT22;15906;52.046;4.724;2023-04-19T04:45:12;9.10;99.90
27540;DHT22;15906;52.046;4.724;2023-04-19T04:47:37;9.10;99.90
27540;DHT22;15906;52.046;4.724;2023-04-19T04:50:03;9.10;99.90
27540;DHT22;15906;52.046;4.724;2023-04-19T04:52:29;9.10;99.90
27540;DHT22;15906;52.046;4.724;2023-04-19T04:54:55;9.10;99.90
27540;DHT22;15906;52.046;4.724;2023-04-19T04:57:20;9.10;99.90
27540;DHT22;15906;52.046;4.724;2023-04-19T04:59:46;9.10;99.90
27540;DHT22;15906;52.046;4.724;2023-04-19T05:02:13;9.10;99.90
27540;DHT22;15906;52.046;4.724;2023-04-19T05:04:39;9.10;99.90
27540;DHT22;15906;52.046;4.724;2023-04-19T05:07:04;9.10;99.90
27540;DHT22;15906;52.046;4.724;2023-04-19T05:09:30;9.20;99.90
27540;DHT22;15906;52.046;4.724;2023-04-19T05:11:56;9.20;99.90
27540;DHT22;15906;52.046;4.724;2023-04-19T05:14:21;9.10;99.90
27540;DHT22;15906;52.046;4.724;2023-04-19T05:16:47;9.10;99.90
27540;DHT22;15906;52.046;4.724;2023-04-19T05:19:12;9.10;99.90
27540;DHT22;15906;52.046;4.724;2023-04-19T05:21:38;9.10;99.90
27540;DHT22;15906;52.046;4.724;2023-04-19T05:24:04;9.00;99.90
27540;DHT22;15906;52.046;4.724;2023-04-19T05:26:29;9.10;99.90
27540;DHT22;15906;52.046;4.724;2023-04-19T05:28:55;9.00;99.90
27540;DHT22;15906;52.046;4.724;2023-04-19T05:31:21;9.00;99.90
27540;DHT22;15906;52.046;4.724;2023-04-19T05:33:46;9.00;99.90
27540;DHT22;15906;52.046;4.724;2023-04-19T05:36:12;9.00;99.90
27540;DHT22;15906;52.046;4.724;2023-04-19T05:38:37;9.00;99.90
27540;DHT22;15906;52.046;4.724;2023-04-19T05:41:04;9.00;99.90
27540;DHT22;15906;52.046;4.724;2023-04-19T05:43:30;9.00;99.90
27540;DHT22;15906;52.046;4.724;2023-04-19T05:45:55;9.00;99.90
27540;DHT22;15906;52.046;4.724;2023-04-19T05:48:21;9.00;99.90
27540;DHT22;15906;52.046;4.724;2023-04-19T05:50:46;9.00;99.90
27540;DHT22;15906;52.046;4.724;2023-04-19T05:53:12;8.90;99.90
27540;DHT22;15906;52.046;4.724;2023-04-19T05:55:38;9.00;99.90
27540;DHT22;15906;52.046;4.724;2023-04-19T05:58:03;9.20;99.90
27540;DHT22;15906;52.046;4.724;2023-04-19T06:00:29;9.20;99.90
27540;DHT22;15906;52.046;4.724;2023-04-19T06:02:54;9.10;99.90
27540;DHT22;15906;52.046;4.724;2023-04-19T06:05:20;9.00;99.90
27540;DHT22;15906;52.046;4.724;2023-04-19T06:07:45;9.00;99.90
27540;DHT22;15906;52.046;4.724;2023-04-19T06:10:12;9.00;99.90
27540;DHT22;15906;52.046;4.724;2023-04-19T06:12:37;9.00;99.90
27540;DHT22;15906;52.046;4.724;2023-04-19T06:15:03;9.10;99.90
27540;DHT22;15906;52.046;4.724;2023-04-19T06:17:30;9.20;99.90
27540;DHT22;15906;52.046;4.724;2023-04-19T06:19:56;9.20;99.90
27540;DHT22;15906;52.046;4.724;2023-04-19T06:22:21;9.30;99.90
27540;DHT22;15906;52.046;4.724;2023-04-19T06:24:47;9.40;99.90
27540;DHT22;15906;52.046;4.724;2023-04-19T06:27:15;9.30;99.90
27540;DHT22;15906;52.046;4.724;2023-04-19T06:29:41;9.40;99.90
27540;DHT22;15906;52.046;4.724;2023-04-19T06:32:07;9.40;99.90
27540;DHT22;15906;52.046;4.724;2023-04-19T06:34:33;9.40;99.90
27540;DHT22;15906;52.046;4.724;2023-04-19T06:36:58;9.60;99.90
27540;DHT22;15906;52.046;4.724;2023-04-19T06:39:24;9.70;99.90
27540;DHT22;15906;52.046;4.724;2023-04-19T06:41:50;9.70;99.90
27540;DHT22;15906;52.046;4.724;2023-04-19T06:44:15;9.90;99.90
27540;DHT22;15906;52.046;4.724;2023-04-19T06:46:41;10.30;99.90
27540;DHT22;15906;52.046;4.724;2023-04-19T06:49:06;10.50;99.90
27540;DHT22;15906;52.046;4.724;2023-04-19T06:51:32;10.60;99.90
27540;DHT22;15906;52.046;4.724;2023-04-19T06:53:58;10.80;99.90
27540;DHT22;15906;52.046;4.724;2023-04-19T06:56:44;11.00;99.90
27540;DHT22;15906;52.046;4.724;2023-04-19T06:59:18;11.40;99.90
27540;DHT22;15906;52.046;4.724;2023-04-19T07:01:44;11.50;99.90
27540;DHT22;15906;52.046;4.724;2023-04-19T07:04:10;11.60;99.90
27540;DHT22;15906;52.046;4.724;2023-04-19T07:06:36;11.80;99.90
27540;DHT22;15906;52.046;4.724;2023-04-19T07:09:03;11.90;99.90
27540;DHT22;15906;52.046;4.724;2023-04-19T07:11:29;11.80;99.90
27540;DHT22;15906;52.046;4.724;2023-04-19T07:13:55;12.00;99.90
27540;DHT22;15906;52.046;4.724;2023-04-19T07:16:20;12.10;99.90
27540;DHT22;15906;52.046;4.724;2023-04-19T07:18:46;12.10;99.90
27540;DHT22;15906;52.046;4.724;2023-04-19T07:21:11;12.00;99.90
27540;DHT22;15906;52.046;4.724;2023-04-19T07:23:37;12.10;99.90
27540;DHT22;15906;52.046;4.724;2023-04-19T07:26:03;12.20;99.90
27540;DHT22;15906;52.046;4.724;2023-04-19T07:28:28;12.20;99.90
27540;DHT22;15906;52.046;4.724;2023-04-19T07:30:54;12.30;99.90
27540;DHT22;15906;52.046;4.724;2023-04-19T07:33:20;12.40;99.90
27540;DHT22;15906;52.046;4.724;2023-04-19T07:35:46;12.50;99.90
27540;DHT22;15906;52.046;4.724;2023-04-19T07:38:12;12.60;99.90
27540;DHT22;15906;52.046;4.724;2023-04-19T07:40:37;12.40;99.90
27540;DHT22;15906;52.046;4.724;2023-04-19T07:43:03;12.60;99.90
27540;DHT22;15906;52.046;4.724;2023-04-19T07:45:31;12.80;99.90
27540;DHT22;15906;52.046;4.724;2023-04-19T07:47:57;13.00;99.90
27540;DHT22;15906;52.046;4.724;2023-04-19T07:50:24;12.80;99.90
27540;DHT22;15906;52.046;4.724;2023-04-19T07:52:50;12.90;99.90
27540;DHT22;15906;52.046;4.724;2023-04-19T07:55:16;13.20;99.90
27540;DHT22;15906;52.046;4.724;2023-04-19T07:57:41;13.20;99.90
27540;DHT22;15906;52.046;4.724;2023-04-19T08:00:11;13.40;99.90
27540;DHT22;15906;52.046;4.724;2023-04-19T08:02:37;13.40;99.90
27540;DHT22;15906;52.046;4.724;2023-04-19T08:05:03;13.50;99.90
27540;DHT22;15906;52.046;4.724;2023-04-19T08:07:29;13.40;99.90
27540;DHT22;15906;52.046;4.724;2023-04-19T08:09:55;13.50;99.90
27540;DHT22;15906;52.046;4.724;2023-04-19T08:12:20;13.60;99.90
27540;DHT22;15906;52.046;4.724;2023-04-19T08:14:46;13.90;99.90
27540;DHT22;15906;52.046;4.724;2023-04-19T08:17:13;13.80;99.90
27540;DHT22;15906;52.046;4.724;2023-04-19T08:19:40;13.80;99.90
27540;DHT22;15906;52.046;4.724;2023-04-19T08:22:06;14.00;99.90
27540;DHT22;15906;52.046;4.724;2023-04-19T08:24:31;14.20;99.90
27540;DHT22;15906;52.046;4.724;2023-04-19T08:26:57;14.30;98.80
27540;DHT22;15906;52.046;4.724;2023-04-19T08:29:22;14.10;97.80
27540;DHT22;15906;52.046;4.724;2023-04-19T08:31:48;13.90;97.80
27540;DHT22;15906;52.046;4.724;2023-04-19T08:34:14;14.10;99.30
27540;DHT22;15906;52.046;4.724;2023-04-19T08:36:39;14.10;96.60
27540;DHT22;15906;52.046;4.724;2023-04-19T08:39:05;14.10;97.60
27540;DHT22;15906;52.046;4.724;2023-04-19T08:41:31;14.10;97.40
27540;DHT22;15906;52.046;4.724;2023-04-19T08:43:57;14.40;97.30
27540;DHT22;15906;52.046;4.724;2023-04-19T08:46:24;14.50;96.60
27540;DHT22;15906;52.046;4.724;2023-04-19T08:48:51;14.30;96.60
27540;DHT22;15906;52.046;4.724;2023-04-19T08:51:18;14.20;97.10
27540;DHT22;15906;52.046;4.724;2023-04-19T08:53:44;14.40;97.00
27540;DHT22;15906;52.046;4.724;2023-04-19T08:56:13;14.30;95.80
27540;DHT22;15906;52.046;4.724;2023-04-19T08:58:38;14.30;96.10
27540;DHT22;15906;52.046;4.724;2023-04-19T09:01:05;14.50;95.90
27540;DHT22;15906;52.046;4.724;2023-04-19T09:03:31;14.60;95.90
27540;DHT22;15906;52.046;4.724;2023-04-19T09:05:56;14.60;95.60
27540;DHT22;15906;52.046;4.724;2023-04-19T09:08:29;14.70;95.40
27540;DHT22;15906;52.046;4.724;2023-04-19T09:10:57;15.00;95.00
27540;DHT22;15906;52.046;4.724;2023-04-19T09:13:24;15.00;94.20
27540;DHT22;15906;52.046;4.724;2023-04-19T09:15:50;14.90;95.50
27540;DHT22;15906;52.046;4.724;2023-04-19T09:18:18;15.20;93.60
27540;DHT22;15906;52.046;4.724;2023-04-19T09:20:44;15.10;94.00
27540;DHT22;15906;52.046;4.724;2023-04-19T09:23:14;15.20;94.00
27540;DHT22;15906;52.046;4.724;2023-04-19T09:25:57;15.20;90.70
27540;DHT22;15906;52.046;4.724;2023-04-19T09:28:25;15.20;91.80
27540;DHT22;15906;52.046;4.724;2023-04-19T09:30:50;15.30;91.00
27540;DHT22;15906;52.046;4.724;2023-04-19T09:33:33;15.30;91.00
27540;DHT22;15906;52.046;4.724;2023-04-19T09:35:59;15.20;89.90
27540;DHT22;15906;52.046;4.724;2023-04-19T09:38:25;15.10;90.70
27540;DHT22;15906;52.046;4.724;2023-04-19T09:40:51;15.10;90.80
27540;DHT22;15906;52.046;4.724;2023-04-19T09:43:23;15.20;90.00
27540;DHT22;15906;52.046;4.724;2023-04-19T09:45:50;15.00;89.10
27540;DHT22;15906;52.046;4.724;2023-04-19T09:48:16;15.30;91.10
27540;DHT22;15906;52.046;4.724;2023-04-19T09:53:21;15.80;89.70
27540;DHT22;15906;52.046;4.724;2023-04-19T09:55:47;15.80;90.80
27540;DHT22;15906;52.046;4.724;2023-04-19T09:58:14;15.80;89.00
27540;DHT22;15906;52.046;4.724;2023-04-19T10:00:40;15.90;90.00
27540;DHT22;15906;52.046;4.724;2023-04-19T10:03:08;15.90;92.10
27540;DHT22;15906;52.046;4.724;2023-04-19T10:05:38;15.80;87.70
27540;DHT22;15906;52.046;4.724;2023-04-19T10:08:06;15.70;88.40
27540;DHT22;15906;52.046;4.724;2023-04-19T10:10:32;15.60;85.40
27540;DHT22;15906;52.046;4.724;2023-04-19T10:13:01;15.10;86.90
27540;DHT22;15906;52.046;4.724;2023-04-19T10:15:29;15.40;91.00
27540;DHT22;15906;52.046;4.724;2023-04-19T10:17:55;15.50;87.70
27540;DHT22;15906;52.046;4.724;2023-04-19T10:20:33;15.60;87.20
27540;DHT22;15906;52.046;4.724;2023-04-19T10:23:01;15.60;86.00
27540;DHT22;15906;52.046;4.724;2023-04-19T10:25:28;16.00;85.60
27540;DHT22;15906;52.046;4.724;2023-04-19T10:27:54;15.90;85.40
27540;DHT22;15906;52.046;4.724;2023-04-19T10:30:23;15.80;83.90
27540;DHT22;15906;52.046;4.724;2023-04-19T10:32:58;15.60;82.50
27540;DHT22;15906;52.046;4.724;2023-04-19T10:35:26;15.50;83.90
27540;DHT22;15906;52.046;4.724;2023-04-19T10:38:12;15.60;86.00
27540;DHT22;15906;52.046;4.724;2023-04-19T10:43:26;15.90;83.90
27540;DHT22;15906;52.046;4.724;2023-04-19T10:45:53;16.00;86.20
27540;DHT22;15906;52.046;4.724;2023-04-19T10:51:01;15.90;83.70
27540;DHT22;15906;52.046;4.724;2023-04-19T10:53:44;15.60;83.20
27540;DHT22;15906;52.046;4.724;2023-04-19T10:56:10;15.70;83.80
27540;DHT22;15906;52.046;4.724;2023-04-19T11:04:14;15.70;84.30
27540;DHT22;15906;52.046;4.724;2023-04-19T11:09:32;15.60;84.00
27540;DHT22;15906;52.046;4.724;2023-04-19T11:12:06;15.60;84.20
27540;DHT22;15906;52.046;4.724;2023-04-19T11:14:56;15.90;83.30
27540;DHT22;15906;52.046;4.724;2023-04-19T11:17:24;15.70;82.70
27540;DHT22;15906;52.046;4.724;2023-04-19T11:19:59;15.60;80.30
27540;DHT22;15906;52.046;4.724;2023-04-19T11:22:36;15.60;81.70
27540;DHT22;15906;52.046;4.724;2023-04-19T11:25:08;15.70;83.80
27540;DHT22;15906;52.046;4.724;2023-04-19T11:27:34;16.00;83.10
27540;DHT22;15906;52.046;4.724;2023-04-19T11:30:04;16.10;81.00
27540;DHT22;15906;52.046;4.724;2023-04-19T11:32:31;15.90;79.20
27540;DHT22;15906;52.046;4.724;2023-04-19T11:34:57;15.90;78.90
27540;DHT22;15906;52.046;4.724;2023-04-19T11:37:22;16.00;79.90
27540;DHT22;15906;52.046;4.724;2023-04-19T11:39:48;16.10;80.30
27540;DHT22;15906;52.046;4.724;2023-04-19T11:42:18;16.10;79.90
27540;DHT22;15906;52.046;4.724;2023-04-19T11:44:48;16.30;82.50
27540;DHT22;15906;52.046;4.724;2023-04-19T11:47:14;16.10;77.50
27540;DHT22;15906;52.046;4.724;2023-04-19T11:49:40;15.90;79.20
27540;DHT22;15906;52.046;4.724;2023-04-19T11:52:05;15.80;84.50
27540;DHT22;15906;52.046;4.724;2023-04-19T11:54:32;16.10;80.60
27540;DHT22;15906;52.046;4.724;2023-04-19T11:59:31;16.30;79.30
27540;DHT22;15906;52.046;4.724;2023-04-19T12:02:11;16.20;78.50
27540;DHT22;15906;52.046;4.724;2023-04-19T12:04:37;16.10;79.30
27540;DHT22;15906;52.046;4.724;2023-04-19T12:07:05;16.10;75.90
27540;DHT22;15906;52.046;4.724;2023-04-19T12:09:34;16.20;76.10
27540;DHT22;15906;52.046;4.724;2023-04-19T12:12:01;16.30;79.70
27540;DHT22;15906;52.046;4.724;2023-04-19T12:14:27;16.20;77.80
27540;DHT22;15906;52.046;4.724;2023-04-19T12:17:07;16.30;76.20
27540;DHT22;15906;52.046;4.724;2023-04-19T12:19:40;16.80;75.60
27540;DHT22;15906;52.046;4.724;2023-04-19T12:22:17;16.80;72.10
27540;DHT22;15906;52.046;4.724;2023-04-19T12:24:46;16.50;71.90
27540;DHT22;15906;52.046;4.724;2023-04-19T12:27:16;16.80;77.50
27540;DHT22;15906;52.046;4.724;2023-04-19T12:29:42;16.90;75.90
27540;DHT22;15906;52.046;4.724;2023-04-19T12:32:09;16.70;72.80
27540;DHT22;15906;52.046;4.724;2023-04-19T12:34:35;16.70;72.50
27540;DHT22;15906;52.046;4.724;2023-04-19T12:37:01;16.40;72.10
27540;DHT22;15906;52.046;4.724;2023-04-19T12:39:29;16.30;70.30
27540;DHT22;15906;52.046;4.724;2023-04-19T12:41:55;16.40;71.60
27540;DHT22;15906;52.046;4.724;2023-04-19T12:44:21;16.30;69.70
27540;DHT22;15906;52.046;4.724;2023-04-19T12:46:47;16.40;69.20
27540;DHT22;15906;52.046;4.724;2023-04-19T12:49:12;16.60;70.40
27540;DHT22;15906;52.046;4.724;2023-04-19T12:51:38;16.50;67.60
27540;DHT22;15906;52.046;4.724;2023-04-19T12:54:03;16.30;67.10
27540;DHT22;15906;52.046;4.724;2023-04-19T12:56:29;16.10;68.40
27540;DHT22;15906;52.046;4.724;2023-04-19T12:58:54;16.20;68.80
27540;DHT22;15906;52.046;4.724;2023-04-19T13:01:20;15.90;65.90
27540;DHT22;15906;52.046;4.724;2023-04-19T13:03:46;16.10;69.30
27540;DHT22;15906;52.046;4.724;2023-04-19T13:06:11;16.40;67.20
27540;DHT22;15906;52.046;4.724;2023-04-19T13:08:39;16.40;68.00
27540;DHT22;15906;52.046;4.724;2023-04-19T13:11:05;16.50;68.50
27540;DHT22;15906;52.046;4.724;2023-04-19T13:13:31;16.50;65.00
27540;DHT22;15906;52.046;4.724;2023-04-19T13:15:57;16.40;65.10
27540;DHT22;15906;52.046;4.724;2023-04-19T13:18:22;16.20;65.70
27540;DHT22;15906;52.046;4.724;2023-04-19T13:20:48;16.20;65.50
27540;DHT22;15906;52.046;4.724;2023-04-19T13:23:14;16.10;69.00
27540;DHT22;15906;52.046;4.724;2023-04-19T13:25:40;16.20;69.40
27540;DHT22;15906;52.046;4.724;2023-04-19T13:28:06;16.00;69.20
27540;DHT22;15906;52.046;4.724;2023-04-19T13:30:31;16.00;69.70
27540;DHT22;15906;52.046;4.724;2023-04-19T13:32:57;16.20;72.00
27540;DHT22;15906;52.046;4.724;2023-04-19T13:35:22;16.30;71.60
27540;DHT22;15906;52.046;4.724;2023-04-19T13:37:48;16.20;71.40
27540;DHT22;15906;52.046;4.724;2023-04-19T13:40:15;16.20;70.90
27540;DHT22;15906;52.046;4.724;2023-04-19T13:42:41;16.40;71.40
27540;DHT22;15906;52.046;4.724;2023-04-19T13:45:08;16.20;69.80
27540;DHT22;15906;52.046;4.724;2023-04-19T13:47:33;16.30;71.20
27540;DHT22;15906;52.046;4.724;2023-04-19T13:49:59;16.30;69.80
27540;DHT22;15906;52.046;4.724;2023-04-19T13:52:25;16.40;68.30
27540;DHT22;15906;52.046;4.724;2023-04-19T13:54:50;16.40;72.80
27540;DHT22;15906;52.046;4.724;2023-04-19T13:57:16;16.40;70.10
27540;DHT22;15906;52.046;4.724;2023-04-19T13:59:41;16.20;71.50
27540;DHT22;15906;52.046;4.724;2023-04-19T14:02:07;16.30;73.50
27540;DHT22;15906;52.046;4.724;2023-04-19T14:04:33;16.40;70.50
27540;DHT22;15906;52.046;4.724;2023-04-19T14:06:58;16.20;72.20
27540;DHT22;15906;52.046;4.724;2023-04-19T14:09:24;16.20;71.10
27540;DHT22;15906;52.046;4.724;2023-04-19T14:11:50;16.10;73.80
27540;DHT22;15906;52.046;4.724;2023-04-19T14:14:16;16.00;71.70
27540;DHT22;15906;52.046;4.724;2023-04-19T14:16:42;15.90;74.40
27540;DHT22;15906;52.046;4.724;2023-04-19T14:19:08;15.80;73.50
27540;DHT22;15906;52.046;4.724;2023-04-19T14:21:33;15.80;71.50
27540;DHT22;15906;52.046;4.724;2023-04-19T14:23:59;15.60;71.40
27540;DHT22;15906;52.046;4.724;2023-04-19T14:26:25;15.50;71.40
27540;DHT22;15906;52.046;4.724;2023-04-19T14:28:50;15.50;71.60
27540;DHT22;15906;52.046;4.724;2023-04-19T14:31:16;15.40;70.60
27540;DHT22;15906;52.046;4.724;2023-04-19T14:33:41;15.50;70.30
27540;DHT22;15906;52.046;4.724;2023-04-19T14:36:07;15.50;71.00
27540;DHT22;15906;52.046;4.724;2023-04-19T14:38:33;15.40;70.30
27540;DHT22;15906;52.046;4.724;2023-04-19T14:40:59;15.60;69.80
27540;DHT22;15906;52.046;4.724;2023-04-19T14:43:25;15.50;68.90
27540;DHT22;15906;52.046;4.724;2023-04-19T14:45:51;15.40;71.70
27540;DHT22;15906;52.046;4.724;2023-04-19T14:48:17;15.50;72.30
27540;DHT22;15906;52.046;4.724;2023-04-19T14:50:43;15.50;70.30
27540;DHT22;15906;52.046;4.724;2023-04-19T14:53:08;15.40;69.10
27540;DHT22;15906;52.046;4.724;2023-04-19T14:55:36;15.40;71.80
27540;DHT22;15906;52.046;4.724;2023-04-19T14:58:02;15.40;71.00
27540;DHT22;15906;52.046;4.724;2023-04-19T15:00:28;15.10;72.90
27540;DHT22;15906;52.046;4.724;2023-04-19T15:02:53;15.10;74.00
27540;DHT22;15906;52.046;4.724;2023-04-19T15:05:21;15.00;73.20
27540;DHT22;15906;52.046;4.724;2023-04-19T15:07:48;15.00;70.70
27540;DHT22;15906;52.046;4.724;2023-04-19T15:10:13;14.90;71.50
27540;DHT22;15906;52.046;4.724;2023-04-19T15:12:39;14.90;70.40
27540;DHT22;15906;52.046;4.724;2023-04-19T15:15:05;14.90;73.50
27540;DHT22;15906;52.046;4.724;2023-04-19T15:17:31;15.00;73.20
27540;DHT22;15906;52.046;4.724;2023-04-19T15:19:57;15.00;76.60
27540;DHT22;15906;52.046;4.724;2023-04-19T15:22:23;15.00;78.50
27540;DHT22;15906;52.046;4.724;2023-04-19T15:24:48;14.90;80.10
27540;DHT22;15906;52.046;4.724;2023-04-19T15:27:15;14.90;80.80
27540;DHT22;15906;52.046;4.724;2023-04-19T15:29:41;14.90;80.80
27540;DHT22;15906;52.046;4.724;2023-04-19T15:32:07;14.90;80.60
27540;DHT22;15906;52.046;4.724;2023-04-19T15:34:32;14.90;81.50
27540;DHT22;15906;52.046;4.724;2023-04-19T15:36:58;14.90;78.20
27540;DHT22;15906;52.046;4.724;2023-04-19T15:39:24;15.00;77.40
27540;DHT22;15906;52.046;4.724;2023-04-19T15:41:50;14.90;77.50
27540;DHT22;15906;52.046;4.724;2023-04-19T15:44:15;14.90;76.90
27540;DHT22;15906;52.046;4.724;2023-04-19T15:46:41;14.80;76.30
27540;DHT22;15906;52.046;4.724;2023-04-19T15:49:06;14.80;76.10
27540;DHT22;15906;52.046;4.724;2023-04-19T15:51:32;14.70;76.90